sensor_id;sensor_type;location;lat;lon;timestamp;temperature;humidity
67101;DHT22;54019;61.746;16.106;2022-11-15T00:01:40;21.60;37.90
67101;DHT22;54019;61.746;16.106;2022-11-15T00:04:06;21.60;37.90
67101;DHT22;54019;61.746;16.106;2022-11-15T00:06:32;21.60;37.90
67101;DHT22;54019;61.746;16.106;2022-11-15T00:08:59;21.60;38.00
67101;DHT22;54019;61.746;16.106;2022-11-15T00:11:26;21.50;37.90
67101;DHT22;54019;61.746;16.106;2022-11-15T00:13:55;21.60;37.90
67101;DHT22;54019;61.746;16.106;2022-11-15T00:16:21;21.50;38.00
67101;DHT22;54019;61.746;16.106;2022-11-15T00:18:46;21.50;38.00
67101;DHT22;54019;61.746;16.106;2022-11-15T00:21:13;21.50;38.00
67101;DHT22;54019;61.746;16.106;2022-11-15T00:23:39;21.50;37.90
67101;DHT22;54019;61.746;16.106;2022-11-15T00:26:05;21.50;37.80
67101;DHT22;54019;61.746;16.106;2022-11-15T00:28:33;21.50;37.90
67101;DHT22;54019;61.746;16.106;2022-11-15T00:31:02;21.50;37.90
67101;DHT22;54019;61.746;16.106;2022-11-15T00:33:28;21.50;37.80
67101;DHT22;54019;61.746;16.106;2022-11-15T00:35:59;21.50;37.80
67101;DHT22;54019;61.746;16.106;2022-11-15T00:38:25;21.50;37.90
67101;DHT22;54019;61.746;16.106;2022-11-15T00:40:55;21.50;37.90
67101;DHT22;54019;61.746;16.106;2022-11-15T00:43:21;21.50;37.80
67101;DHT22;54019;61.746;16.106;2022-11-15T00:45:48;21.50;38.00
67101;DHT22;54019;61.746;16.106;2022-11-15T00:48:14;21.50;37.90
67101;DHT22;54019;61.746;16.106;2022-11-15T00:50:39;21.50;37.90
67101;DHT22;54019;61.746;16.106;2022-11-15T00:53:06;21.50;37.90
67101;DHT22;54019;61.746;16.106;2022-11-15T00:55:31;21.50;37.80
67101;DHT22;54019;61.746;16.106;2022-11-15T00:57:57;21.50;37.80
67101;DHT22;54019;61.746;16.106;2022-11-15T01:00:23;21.50;37.80
67101;DHT22;54019;61.746;16.106;2022-11-15T01:02:50;21.50;37.70
67101;DHT22;54019;61.746;16.106;2022-11-15T01:05:16;21.50;37.80
67101;DHT22;54019;61.746;16.106;2022-11-15T01:07:42;21.50;37.80
67101;DHT22;54019;61.746;16.106;2022-11-15T01:10:08;21.40;37.80
67101;DHT22;54019;61.746;16.106;2022-11-15T01:12:35;21.40;37.80
67101;DHT22;54019;61.746;16.106;2022-11-15T01:15:01;21.50;37.80
67101;DHT22;54019;61.746;16.106;2022-11-15T01:17:27;21.40;37.60
67101;DHT22;54019;61.746;16.106;2022-11-15T01:19:54;21.50;37.50
67101;DHT22;54019;61.746;16.106;2022-11-15T01:22:20;21.50;37.60
67101;DHT22;54019;61.746;16.106;2022-11-15T01:24:46;21.50;37.60
67101;DHT22;54019;61.746;16.106;2022-11-15T01:27:12;21.50;37.50
67101;DHT22;54019;61.746;16.106;2022-11-15T01:29:38;21.50;37.60
67101;DHT22;54019;61.746;16.106;2022-11-15T01:32:04;21.50;37.60
67101;DHT22;54019;61.746;16.106;2022-11-15T01:34:29;21.50;37.60
67101;DHT22;54019;61.746;16.106;2022-11-15T01:36:57;21.40;37.40
67101;DHT22;54019;61.746;16.106;2022-11-15T01:39:22;21.50;37.60
67101;DHT22;54019;61.746;16.106;2022-11-15T01:41:48;21.40;38.10
67101;DHT22;54019;61.746;16.106;2022-11-15T01:44:44;21.40;37.60
67101;DHT22;54019;61.746;16.106;2022-11-15T01:47:15;21.40;37.60
67101;DHT22;54019;61.746;16.106;2022-11-15T01:49:49;21.40;37.50
67101;DHT22;54019;61.746;16.106;2022-11-15T01:52:19;21.50;37.60
67101;DHT22;54019;61.746;16.106;2022-11-15T01:54:46;21.50;37.60
67101;DHT22;54019;61.746;16.106;2022-11-15T01:57:13;21.50;37.50
67101;DHT22;54019;61.746;16.106;2022-11-15T01:59:41;21.40;37.50
67101;DHT22;54019;61.746;16.106;2022-11-15T02:02:08;21.40;37.50
67101;DHT22;54019;61.746;16.106;2022-11-15T02:04:39;21.40;37.50
67101;DHT22;54019;61.746;16.106;2022-11-15T02:07:06;21.40;37.60
67101;DHT22;54019;61.746;16.106;2022-11-15T02:09:35;21.40;37.50
67101;DHT22;54019;61.746;16.106;2022-11-15T02:12:01;21.40;37.50
67101;DHT22;54019;61.746;16.106;2022-11-15T02:14:28;21.40;37.50
67101;DHT22;54019;61.746;16.106;2022-11-15T02:16:59;21.40;37.40
67101;DHT22;54019;61.746;16.106;2022-11-15T02:19:47;21.50;37.40
67101;DHT22;54019;61.746;16.106;2022-11-15T02:22:27;21.40;37.40
67101;DHT22;54019;61.746;16.106;2022-11-15T02:25:08;21.40;37.40
67101;DHT22;54019;61.746;16.106;2022-11-15T02:30:47;21.40;37.30
67101;DHT22;54019;61.746;16.106;2022-11-15T02:33:22;21.40;37.40
67101;DHT22;54019;61.746;16.106;2022-11-15T02:35:57;21.40;37.40
67101;DHT22;54019;61.746;16.106;2022-11-15T02:38:31;21.40;37.40
67101;DHT22;54019;61.746;16.106;2022-11-15T02:41:02;21.40;37.40
67101;DHT22;54019;61.746;16.106;2022-11-15T02:43:35;21.40;37.30
67101;DHT22;54019;61.746;16.106;2022-11-15T02:46:08;21.40;37.30
67101;DHT22;54019;61.746;16.106;2022-11-15T02:48:36;21.40;37.10
67101;DHT22;54019;61.746;16.106;2022-11-15T02:51:02;21.40;37.10
67101;DHT22;54019;61.746;16.106;2022-11-15T02:53:28;21.40;37.20
67101;DHT22;54019;61.746;16.106;2022-11-15T02:55:56;21.40;37.20
67101;DHT22;54019;61.746;16.106;2022-11-15T02:59:00;21.40;37.20
67101;DHT22;54019;61.746;16.106;2022-11-15T03:01:41;21.40;37.20
67101;DHT22;54019;61.746;16.106;2022-11-15T03:04:19;21.40;37.20
67101;DHT22;54019;61.746;16.106;2022-11-15T03:06:52;21.30;37.20
67101;DHT22;54019;61.746;16.106;2022-11-15T03:09:24;21.40;37.20
67101;DHT22;54019;61.746;16.106;2022-11-15T03:11:58;21.40;37.10
67101;DHT22;54019;61.746;16.106;2022-11-15T03:14:30;21.40;37.10
67101;DHT22;54019;61.746;16.106;2022-11-15T03:17:02;21.40;37.00
67101;DHT22;54019;61.746;16.106;2022-11-15T03:19:35;21.40;37.00
67101;DHT22;54019;61.746;16.106;2022-11-15T03:22:06;21.40;37.10
67101;DHT22;54019;61.746;16.106;2022-11-15T03:24:37;21.40;37.00
67101;DHT22;54019;61.746;16.106;2022-11-15T03:27:04;21.40;36.90
67101;DHT22;54019;61.746;16.106;2022-11-15T03:29:33;21.40;36.90
67101;DHT22;54019;61.746;16.106;2022-11-15T03:32:05;21.40;37.10
67101;DHT22;54019;61.746;16.106;2022-11-15T03:34:34;21.30;37.20
67101;DHT22;54019;61.746;16.106;2022-11-15T03:37:01;21.40;37.10
67101;DHT22;54019;61.746;16.106;2022-11-15T03:39:28;21.40;37.00
67101;DHT22;54019;61.746;16.106;2022-11-15T03:44:43;21.40;37.00
67101;DHT22;54019;61.746;16.106;2022-11-15T03:47:17;21.30;36.80
67101;DHT22;54019;61.746;16.106;2022-11-15T03:49:46;21.40;37.10
67101;DHT22;54019;61.746;16.106;2022-11-15T03:52:17;21.40;37.00
67101;DHT22;54019;61.746;16.106;2022-11-15T03:54:49;21.30;37.00
67101;DHT22;54019;61.746;16.106;2022-11-15T03:57:18;21.30;36.90
67101;DHT22;54019;61.746;16.106;2022-11-15T03:59:44;21.30;37.00
67101;DHT22;54019;61.746;16.106;2022-11-15T04:02:09;21.30;37.10
67101;DHT22;54019;61.746;16.106;2022-11-15T04:04:36;21.30;37.10
67101;DHT22;54019;61.746;16.106;2022-11-15T04:07:02;21.30;37.10
67101;DHT22;54019;61.746;16.106;2022-11-15T04:09:28;21.30;37.10
67101;DHT22;54019;61.746;16.106;2022-11-15T04:11:54;21.30;36.90
67101;DHT22;54019;61.746;16.106;2022-11-15T04:14:20;21.30;37.20
67101;DHT22;54019;61.746;16.106;2022-11-15T04:16:45;21.30;37.20
67101;DHT22;54019;61.746;16.106;2022-11-15T04:19:11;21.30;37.20
67101;DHT22;54019;61.746;16.106;2022-11-15T04:21:38;21.30;37.00
67101;DHT22;54019;61.746;16.106;2022-11-15T04:24:05;21.30;37.10
67101;DHT22;54019;61.746;16.106;2022-11-15T04:26:31;21.30;37.00
67101;DHT22;54019;61.746;16.106;2022-11-15T04:28:56;21.30;37.10
67101;DHT22;54019;61.746;16.106;2022-11-15T04:31:22;21.30;37.10
67101;DHT22;54019;61.746;16.106;2022-11-15T04:33:48;21.30;37.00
67101;DHT22;54019;61.746;16.106;2022-11-15T04:36:14;21.30;37.20
67101;DHT22;54019;61.746;16.106;2022-11-15T04:38:41;21.20;37.00
67101;DHT22;54019;61.746;16.106;2022-11-15T04:41:07;21.30;37.10
67101;DHT22;54019;61.746;16.106;2022-11-15T04:43:33;21.30;37.10
67101;DHT22;54019;61.746;16.106;2022-11-15T04:45:58;21.20;37.00
67101;DHT22;54019;61.746;16.106;2022-11-15T04:48:24;21.20;37.00
67101;DHT22;54019;61.746;16.106;2022-11-15T04:50:50;21.30;37.20
67101;DHT22;54019;61.746;16.106;2022-11-15T04:53:16;21.20;37.10
67101;DHT22;54019;61.746;16.106;2022-11-15T04:55:45;21.20;37.10
67101;DHT22;54019;61.746;16.106;2022-11-15T04:58:11;21.20;37.10
67101;DHT22;54019;61.746;16.106;2022-11-15T05:00:37;21.30;37.00
67101;DHT22;54019;61.746;16.106;2022-11-15T05:03:03;21.40;36.90
67101;DHT22;54019;61.746;16.106;2022-11-15T05:05:30;21.40;36.70
67101;DHT22;54019;61.746;16.106;2022-11-15T05:07:56;21.50;36.20
67101;DHT22;54019;61.746;16.106;2022-11-15T05:10:21;21.60;36.00
67101;DHT22;54019;61.746;16.106;2022-11-15T05:12:49;21.60;35.90
67101;DHT22;54019;61.746;16.106;2022-11-15T05:15:14;21.60;35.90
67101;DHT22;54019;61.746;16.106;2022-11-15T05:17:40;21.60;36.00
67101;DHT22;54019;61.746;16.106;2022-11-15T05:20:07;21.60;36.20
67101;DHT22;54019;61.746;16.106;2022-11-15T05:22:33;21.60;36.20
67101;DHT22;54019;61.746;16.106;2022-11-15T05:24:59;21.60;36.30
67101;DHT22;54019;61.746;16.106;2022-11-15T05:27:24;21.60;36.40
67101;DHT22;54019;61.746;16.106;2022-11-15T05:29:52;21.60;36.40
67101;DHT22;54019;61.746;16.106;2022-11-15T05:32:18;21.60;36.50
67101;DHT22;54019;61.746;16.106;2022-11-15T05:34:43;21.60;36.50
67101;DHT22;54019;61.746;16.106;2022-11-15T05:37:10;21.60;36.50
67101;DHT22;54019;61.746;16.106;2022-11-15T05:39:35;21.60;36.50
67101;DHT22;54019;61.746;16.106;2022-11-15T05:42:05;21.60;36.50
67101;DHT22;54019;61.746;16.106;2022-11-15T05:44:33;21.60;36.20
67101;DHT22;54019;61.746;16.106;2022-11-15T05:47:02;21.70;35.80
67101;DHT22;54019;61.746;16.106;2022-11-15T05:49:31;21.70;35.60
67101;DHT22;54019;61.746;16.106;2022-11-15T05:52:02;21.80;36.20
67101;DHT22;54019;61.746;16.106;2022-11-15T05:54:28;21.80;35.60
67101;DHT22;54019;61.746;16.106;2022-11-15T05:56:55;21.80;35.90
67101;DHT22;54019;61.746;16.106;2022-11-15T05:59:21;21.80;36.00
67101;DHT22;54019;61.746;16.106;2022-11-15T06:01:47;21.80;36.20
67101;DHT22;54019;61.746;16.106;2022-11-15T06:04:14;21.80;37.00
67101;DHT22;54019;61.746;16.106;2022-11-15T06:06:40;21.80;37.20
67101;DHT22;54019;61.746;16.106;2022-11-15T06:09:06;21.80;37.50
67101;DHT22;54019;61.746;16.106;2022-11-15T06:11:31;21.90;37.70
67101;DHT22;54019;61.746;16.106;2022-11-15T06:13:57;22.00;37.40
67101;DHT22;54019;61.746;16.106;2022-11-15T06:16:23;22.00;37.60
67101;DHT22;54019;61.746;16.106;2022-11-15T06:18:49;22.00;37.40
67101;DHT22;54019;61.746;16.106;2022-11-15T06:21:16;22.00;37.40
67101;DHT22;54019;61.746;16.106;2022-11-15T06:23:42;22.00;36.80
67101;DHT22;54019;61.746;16.106;2022-11-15T06:26:08;22.00;36.50
67101;DHT22;54019;61.746;16.106;2022-11-15T06:28:33;22.00;36.40
67101;DHT22;54019;61.746;16.106;2022-11-15T06:31:02;22.10;36.40
67101;DHT22;54019;61.746;16.106;2022-11-15T06:33:28;22.20;36.40
67101;DHT22;54019;61.746;16.106;2022-11-15T06:35:54;22.10;36.00
67101;DHT22;54019;61.746;16.106;2022-11-15T06:38:21;22.20;36.60
67101;DHT22;54019;61.746;16.106;2022-11-15T06:40:47;22.20;36.40
67101;DHT22;54019;61.746;16.106;2022-11-15T06:43:13;22.20;36.40
67101;DHT22;54019;61.746;16.106;2022-11-15T06:45:39;22.10;36.50
67101;DHT22;54019;61.746;16.106;2022-11-15T06:48:05;22.10;36.40
67101;DHT22;54019;61.746;16.106;2022-11-15T06:50:31;22.00;36.40
67101;DHT22;54019;61.746;16.106;2022-11-15T06:53:01;22.00;36.30
67101;DHT22;54019;61.746;16.106;2022-11-15T06:55:28;21.90;36.60
67101;DHT22;54019;61.746;16.106;2022-11-15T06:57:54;21.90;36.60
67101;DHT22;54019;61.746;16.106;2022-11-15T07:00:21;21.90;36.80
67101;DHT22;54019;61.746;16.106;2022-11-15T07:02:47;21.90;36.80
67101;DHT22;54019;61.746;16.106;2022-11-15T07:05:14;22.00;36.50
67101;DHT22;54019;61.746;16.106;2022-11-15T07:07:40;22.00;36.30
67101;DHT22;54019;61.746;16.106;2022-11-15T07:10:07;22.10;35.90
67101;DHT22;54019;61.746;16.106;2022-11-15T07:12:34;22.20;35.60
67101;DHT22;54019;61.746;16.106;2022-11-15T07:15:00;22.20;35.90
67101;DHT22;54019;61.746;16.106;2022-11-15T07:17:26;22.20;36.40
67101;DHT22;54019;61.746;16.106;2022-11-15T07:19:52;22.20;36.10
67101;DHT22;54019;61.746;16.106;2022-11-15T07:22:18;22.20;36.50
67101;DHT22;54019;61.746;16.106;2022-11-15T07:24:43;22.10;36.40
67101;DHT22;54019;61.746;16.106;2022-11-15T07:27:09;22.10;36.40
67101;DHT22;54019;61.746;16.106;2022-11-15T07:29:36;22.10;36.50
67101;DHT22;54019;61.746;16.106;2022-11-15T07:32:02;22.00;36.50
67101;DHT22;54019;61.746;16.106;2022-11-15T07:34:28;22.00;36.30
67101;DHT22;54019;61.746;16.106;2022-11-15T07:36:54;21.90;36.40
67101;DHT22;54019;61.746;16.106;2022-11-15T07:39:20;21.90;36.50
67101;DHT22;54019;61.746;16.106;2022-11-15T07:41:46;21.90;35.90
67101;DHT22;54019;61.746;16.106;2022-11-15T07:44:11;21.90;36.00
67101;DHT22;54019;61.746;16.106;2022-11-15T07:46:39;22.00;35.60
67101;DHT22;54019;61.746;16.106;2022-11-15T07:49:04;22.00;35.20
67101;DHT22;54019;61.746;16.106;2022-11-15T07:51:30;22.00;35.10
67101;DHT22;54019;61.746;16.106;2022-11-15T07:53:56;22.10;35.30
67101;DHT22;54019;61.746;16.106;2022-11-15T07:56:22;22.10;35.30
67101;DHT22;54019;61.746;16.106;2022-11-15T07:58:48;22.10;35.00
67101;DHT22;54019;61.746;16.106;2022-11-15T08:01:13;22.10;34.90
67101;DHT22;54019;61.746;16.106;2022-11-15T08:03:41;22.10;34.90
67101;DHT22;54019;61.746;16.106;2022-11-15T08:06:07;22.00;34.80
67101;DHT22;54019;61.746;16.106;2022-11-15T08:08:32;22.00;34.80
67101;DHT22;54019;61.746;16.106;2022-11-15T08:10:59;22.00;35.00
67101;DHT22;54019;61.746;16.106;2022-11-15T08:13:24;21.90;36.30
67101;DHT22;54019;61.746;16.106;2022-11-15T08:15:50;21.90;38.90
67101;DHT22;54019;61.746;16.106;2022-11-15T08:18:16;21.90;39.20
67101;DHT22;54019;61.746;16.106;2022-11-15T08:20:43;21.90;41.40
67101;DHT22;54019;61.746;16.106;2022-11-15T08:23:10;22.00;41.20
67101;DHT22;54019;61.746;16.106;2022-11-15T08:25:37;22.00;39.20
67101;DHT22;54019;61.746;16.106;2022-11-15T08:28:05;22.10;39.50
67101;DHT22;54019;61.746;16.106;2022-11-15T08:30:35;22.20;39.50
67101;DHT22;54019;61.746;16.106;2022-11-15T08:33:02;22.20;39.80
67101;DHT22;54019;61.746;16.106;2022-11-15T08:35:28;22.30;38.90
67101;DHT22;54019;61.746;16.106;2022-11-15T08:37:55;22.20;39.10
67101;DHT22;54019;61.746;16.106;2022-11-15T08:40:21;22.20;38.80
67101;DHT22;54019;61.746;16.106;2022-11-15T08:42:47;22.20;38.30
67101;DHT22;54019;61.746;16.106;2022-11-15T08:45:13;22.20;38.30
67101;DHT22;54019;61.746;16.106;2022-11-15T08:47:39;22.20;39.00
67101;DHT22;54019;61.746;16.106;2022-11-15T08:50:06;22.10;38.30
67101;DHT22;54019;61.746;16.106;2022-11-15T08:52:32;22.10;37.50
67101;DHT22;54019;61.746;16.106;2022-11-15T08:54:59;22.10;37.90
67101;DHT22;54019;61.746;16.106;2022-11-15T08:57:28;22.10;37.30
67101;DHT22;54019;61.746;16.106;2022-11-15T08:59:54;22.10;37.30
67101;DHT22;54019;61.746;16.106;2022-11-15T09:02:20;22.10;37.40
67101;DHT22;54019;61.746;16.106;2022-11-15T09:04:45;22.20;37.00
67101;DHT22;54019;61.746;16.106;2022-11-15T09:07:11;22.20;37.10
67101;DHT22;54019;61.746;16.106;2022-11-15T09:09:38;22.20;36.80
67101;DHT22;54019;61.746;16.106;2022-11-15T09:12:06;22.30;36.60
67101;DHT22;54019;61.746;16.106;2022-11-15T09:14:33;22.30;36.50
67101;DHT22;54019;61.746;16.106;2022-11-15T09:16:59;22.40;36.70
67101;DHT22;54019;61.746;16.106;2022-11-15T09:19:25;22.40;36.80
67101;DHT22;54019;61.746;16.106;2022-11-15T09:21:51;22.40;36.50
67101;DHT22;54019;61.746;16.106;2022-11-15T09:24:17;22.40;36.50
67101;DHT22;54019;61.746;16.106;2022-11-15T09:26:43;22.40;36.40
67101;DHT22;54019;61.746;16.106;2022-11-15T09:29:11;22.40;36.90
67101;DHT22;54019;61.746;16.106;2022-11-15T09:31:37;22.40;36.80
67101;DHT22;54019;61.746;16.106;2022-11-15T09:34:02;22.30;36.20
67101;DHT22;54019;61.746;16.106;2022-11-15T09:36:28;22.20;36.10
67101;DHT22;54019;61.746;16.106;2022-11-15T09:38:54;22.20;36.50
67101;DHT22;54019;61.746;16.106;2022-11-15T09:41:40;22.20;36.70
67101;DHT22;54019;61.746;16.106;2022-11-15T09:47:10;22.30;36.20
67101;DHT22;54019;61.746;16.106;2022-11-15T09:49:42;22.30;36.20
67101;DHT22;54019;61.746;16.106;2022-11-15T09:52:10;22.30;36.30
67101;DHT22;54019;61.746;16.106;2022-11-15T09:54:38;22.40;36.10
67101;DHT22;54019;61.746;16.106;2022-11-15T09:57:09;22.40;36.00
67101;DHT22;54019;61.746;16.106;2022-11-15T09:59:53;22.40;35.70
67101;DHT22;54019;61.746;16.106;2022-11-15T10:02:40;22.50;36.00
67101;DHT22;54019;61.746;16.106;2022-11-15T10:05:10;22.50;36.00
67101;DHT22;54019;61.746;16.106;2022-11-15T10:07:44;22.40;36.00
67101;DHT22;54019;61.746;16.106;2022-11-15T10:10:15;22.40;35.70
67101;DHT22;54019;61.746;16.106;2022-11-15T10:12:47;22.40;35.60
67101;DHT22;54019;61.746;16.106;2022-11-15T10:15:16;22.40;35.60
67101;DHT22;54019;61.746;16.106;2022-11-15T10:18:05;22.30;35.60
67101;DHT22;54019;61.746;16.106;2022-11-15T10:20:37;22.30;35.60
67101;DHT22;54019;61.746;16.106;2022-11-15T10:23:06;22.40;35.30
67101;DHT22;54019;61.746;16.106;2022-11-15T10:25:35;22.30;35.20
67101;DHT22;54019;61.746;16.106;2022-11-15T10:28:09;22.30;35.30
67101;DHT22;54019;61.746;16.106;2022-11-15T10:30:39;22.40;35.10
67101;DHT22;54019;61.746;16.106;2022-11-15T10:33:17;22.40;34.80
67101;DHT22;54019;61.746;16.106;2022-11-15T10:35:45;22.40;34.90
67101;DHT22;54019;61.746;16.106;2022-11-15T10:38:12;22.40;34.80
67101;DHT22;54019;61.746;16.106;2022-11-15T10:40:40;22.50;34.90
67101;DHT22;54019;61.746;16.106;2022-11-15T10:43:13;22.50;34.80
67101;DHT22;54019;61.746;16.106;2022-11-15T10:45:41;22.40;34.70
67101;DHT22;54019;61.746;16.106;2022-11-15T10:48:24;22.40;34.70
67101;DHT22;54019;61.746;16.106;2022-11-15T10:50:50;22.40;34.70
67101;DHT22;54019;61.746;16.106;2022-11-15T10:53:24;22.40;34.70
67101;DHT22;54019;61.746;16.106;2022-11-15T10:55:53;22.40;34.80
67101;DHT22;54019;61.746;16.106;2022-11-15T10:58:27;22.40;35.00
67101;DHT22;54019;61.746;16.106;2022-11-15T11:01:09;22.30;34.90
67101;DHT22;54019;61.746;16.106;2022-11-15T11:03:37;22.40;34.50
67101;DHT22;54019;61.746;16.106;2022-11-15T11:06:06;22.40;34.30
67101;DHT22;54019;61.746;16.106;2022-11-15T11:08:32;22.30;34.00
67101;DHT22;54019;61.746;16.106;2022-11-15T11:11:00;22.30;33.90
67101;DHT22;54019;61.746;16.106;2022-11-15T11:13:27;22.40;34.20
67101;DHT22;54019;61.746;16.106;2022-11-15T11:15:59;22.40;34.10
67101;DHT22;54019;61.746;16.106;2022-11-15T11:18:28;22.40;33.70
67101;DHT22;54019;61.746;16.106;2022-11-15T11:20:58;22.40;34.40
67101;DHT22;54019;61.746;16.106;2022-11-15T11:23:42;22.40;34.60
67101;DHT22;54019;61.746;16.106;2022-11-15T11:26:21;22.40;34.20
67101;DHT22;54019;61.746;16.106;2022-11-15T11:29:00;22.50;34.70
67101;DHT22;54019;61.746;16.106;2022-11-15T11:31:33;22.60;34.40
67101;DHT22;54019;61.746;16.106;2022-11-15T11:34:12;22.70;34.20
67101;DHT22;54019;61.746;16.106;2022-11-15T11:36:47;22.70;34.50
67101;DHT22;54019;61.746;16.106;2022-11-15T11:39:26;22.80;35.20
67101;DHT22;54019;61.746;16.106;2022-11-15T11:42:02;23.00;35.60
67101;DHT22;54019;61.746;16.106;2022-11-15T11:44:42;23.10;34.80
67101;DHT22;54019;61.746;16.106;2022-11-15T11:47:17;23.10;34.60
67101;DHT22;54019;61.746;16.106;2022-11-15T11:49:48;23.20;34.10
67101;DHT22;54019;61.746;16.106;2022-11-15T11:52:18;23.20;33.90
67101;DHT22;54019;61.746;16.106;2022-11-15T11:54:52;23.30;33.90
67101;DHT22;54019;61.746;16.106;2022-11-15T11:57:27;23.30;33.80
67101;DHT22;54019;61.746;16.106;2022-11-15T12:00:00;23.20;33.60
67101;DHT22;54019;61.746;16.106;2022-11-15T12:02:31;23.20;33.60
67101;DHT22;54019;61.746;16.106;2022-11-15T12:05:07;23.20;33.70
67101;DHT22;54019;61.746;16.106;2022-11-15T12:07:35;23.20;33.70
67101;DHT22;54019;61.746;16.106;2022-11-15T12:10:05;23.10;33.80
67101;DHT22;54019;61.746;16.106;2022-11-15T12:12:44;23.10;33.80
67101;DHT22;54019;61.746;16.106;2022-11-15T12:15:14;23.00;33.90
67101;DHT22;54019;61.746;16.106;2022-11-15T12:17:42;23.00;34.50
67101;DHT22;54019;61.746;16.106;2022-11-15T12:20:16;23.00;34.40
67101;DHT22;54019;61.746;16.106;2022-11-15T12:22:44;23.10;34.30
67101;DHT22;54019;61.746;16.106;2022-11-15T12:25:16;23.00;34.30
67101;DHT22;54019;61.746;16.106;2022-11-15T12:27:44;23.00;34.00
67101;DHT22;54019;61.746;16.106;2022-11-15T12:30:14;23.00;34.20
67101;DHT22;54019;61.746;16.106;2022-11-15T12:32:51;22.90;34.70
67101;DHT22;54019;61.746;16.106;2022-11-15T12:35:24;22.80;34.80
67101;DHT22;54019;61.746;16.106;2022-11-15T12:37:51;22.80;35.10
67101;DHT22;54019;61.746;16.106;2022-11-15T12:40:31;22.80;35.20
67101;DHT22;54019;61.746;16.106;2022-11-15T12:45:53;22.70;35.50
67101;DHT22;54019;61.746;16.106;2022-11-15T12:48:54;22.70;35.60
67101;DHT22;54019;61.746;16.106;2022-11-15T12:51:22;22.70;35.80
67101;DHT22;54019;61.746;16.106;2022-11-15T12:53:48;22.60;35.70
67101;DHT22;54019;61.746;16.106;2022-11-15T12:56:22;22.60;35.80
67101;DHT22;54019;61.746;16.106;2022-11-15T12:58:51;22.60;35.70
67101;DHT22;54019;61.746;16.106;2022-11-15T13:04:27;22.70;35.90
67101;DHT22;54019;61.746;16.106;2022-11-15T13:06:55;22.70;35.90
67101;DHT22;54019;61.746;16.106;2022-11-15T13:12:54;22.70;36.00
67101;DHT22;54019;61.746;16.106;2022-11-15T13:18:36;22.70;35.90
67101;DHT22;54019;61.746;16.106;2022-11-15T13:21:17;22.60;35.80
67101;DHT22;54019;61.746;16.106;2022-11-15T13:23:45;22.60;35.60
67101;DHT22;54019;61.746;16.106;2022-11-15T13:26:13;22.60;35.50
67101;DHT22;54019;61.746;16.106;2022-11-15T13:28:43;22.60;35.80
67101;DHT22;54019;61.746;16.106;2022-11-15T13:31:25;22.50;36.00
67101;DHT22;54019;61.746;16.106;2022-11-15T13:33:52;22.50;36.00
67101;DHT22;54019;61.746;16.106;2022-11-15T13:36:23;22.50;36.00
67101;DHT22;54019;61.746;16.106;2022-11-15T13:38:59;22.60;35.90
67101;DHT22;54019;61.746;16.106;2022-11-15T13:41:28;22.70;35.70
67101;DHT22;54019;61.746;16.106;2022-11-15T13:43:55;22.70;35.70
67101;DHT22;54019;61.746;16.106;2022-11-15T13:46:22;22.70;35.70
67101;DHT22;54019;61.746;16.106;2022-11-15T13:48:53;22.70;35.60
67101;DHT22;54019;61.746;16.106;2022-11-15T13:51:26;22.70;35.60
67101;DHT22;54019;61.746;16.106;2022-11-15T13:53:57;22.70;35.50
67101;DHT22;54019;61.746;16.106;2022-11-15T13:56:24;22.70;35.50
67101;DHT22;54019;61.746;16.106;2022-11-15T13:58:51;22.60;35.60
67101;DHT22;54019;61.746;16.106;2022-11-15T14:01:18;22.60;35.70
67101;DHT22;54019;61.746;16.106;2022-11-15T14:03:51;22.50;35.70
67101;DHT22;54019;61.746;16.106;2022-11-15T14:06:20;22.50;35.50
67101;DHT22;54019;61.746;16.106;2022-11-15T14:11:49;22.50;35.70
67101;DHT22;54019;61.746;16.106;2022-11-15T14:14:15;22.50;35.60
67101;DHT22;54019;61.746;16.106;2022-11-15T14:16:42;22.60;35.40
67101;DHT22;54019;61.746;16.106;2022-11-15T14:19:11;22.70;35.50
67101;DHT22;54019;61.746;16.106;2022-11-15T14:21:37;22.70;35.40
67101;DHT22;54019;61.746;16.106;2022-11-15T14:24:30;22.70;35.40
67101;DHT22;54019;61.746;16.106;2022-11-15T14:26:56;22.70;35.00
67101;DHT22;54019;61.746;16.106;2022-11-15T14:29:22;22.70;35.30
67101;DHT22;54019;61.746;16.106;2022-11-15T14:31:48;22.70;35.10
67101;DHT22;54019;61.746;16.106;2022-11-15T14:34:14;22.70;35.30
67101;DHT22;54019;61.746;16.106;2022-11-15T14:36:40;22.70;35.40
67101;DHT22;54019;61.746;16.106;2022-11-15T14:39:06;22.60;35.30
67101;DHT22;54019;61.746;16.106;2022-11-15T14:41:35;22.60;35.40
67101;DHT22;54019;61.746;16.106;2022-11-15T14:44:01;22.60;35.50
67101;DHT22;54019;61.746;16.106;2022-11-15T14:46:27;22.60;35.40
67101;DHT22;54019;61.746;16.106;2022-11-15T14:48:53;22.60;35.70
67101;DHT22;54019;61.746;16.106;2022-11-15T14:51:19;22.60;35.40
67101;DHT22;54019;61.746;16.106;2022-11-15T14:53:45;22.60;35.10
67101;DHT22;54019;61.746;16.106;2022-11-15T14:56:11;22.70;35.20
67101;DHT22;54019;61.746;16.106;2022-11-15T14:58:39;22.70;35.10
67101;DHT22;54019;61.746;16.106;2022-11-15T15:01:12;22.70;35.30
67101;DHT22;54019;61.746;16.106;2022-11-15T15:03:38;22.70;35.20
67101;DHT22;54019;61.746;16.106;2022-11-15T15:06:04;22.70;34.90
67101;DHT22;54019;61.746;16.106;2022-11-15T15:08:30;22.70;35.00
67101;DHT22;54019;61.746;16.106;2022-11-15T15:10:56;22.60;34.90
67101;DHT22;54019;61.746;16.106;2022-11-15T15:13:23;22.50;35.00
67101;DHT22;54019;61.746;16.106;2022-11-15T15:15:51;22.50;35.00
67101;DHT22;54019;61.746;16.106;2022-11-15T15:18:17;22.50;35.10
67101;DHT22;54019;61.746;16.106;2022-11-15T15:20:44;22.40;35.00
67101;DHT22;54019;61.746;16.106;2022-11-15T15:23:15;22.40;35.00
67101;DHT22;54019;61.746;16.106;2022-11-15T15:25:41;22.40;34.90
67101;DHT22;54019;61.746;16.106;2022-11-15T15:28:07;22.50;34.80
67101;DHT22;54019;61.746;16.106;2022-11-15T15:30:32;22.50;34.70
67101;DHT22;54019;61.746;16.106;2022-11-15T15:32:59;22.50;34.70
67101;DHT22;54019;61.746;16.106;2022-11-15T15:35:29;22.60;34.60
67101;DHT22;54019;61.746;16.106;2022-11-15T15:37:55;22.60;34.60
67101;DHT22;54019;61.746;16.106;2022-11-15T15:40:22;22.60;34.60
67101;DHT22;54019;61.746;16.106;2022-11-15T15:42:48;22.60;34.60
67101;DHT22;54019;61.746;16.106;2022-11-15T15:45:15;22.60;34.60
67101;DHT22;54019;61.746;16.106;2022-11-15T15:47:41;22.50;34.60
67101;DHT22;54019;61.746;16.106;2022-11-15T15:50:21;22.50;34.60